createdAt,value
2022-07-25T00:01:03.070Z,75.59
2022-07-25T00:04:11.068Z,76.75
2022-07-25T00:07:17.019Z,76.66
2022-07-25T00:10:21.798Z,76.93
2022-07-25T00:13:26.269Z,77.53
2022-07-25T00:16:31.000Z,77.04
2022-07-25T00:19:35.843Z,77.08
2022-07-25T00:22:40.630Z,75.98
2022-07-25T00:25:45.349Z,76.44
2022-07-25T00:28:50.067Z,76.85
2022-07-25T00:31:54.751Z,77.13
2022-07-25T00:34:59.935Z,76.82
2022-07-25T00:38:04.820Z,78.05
2022-07-25T00:41:09.625Z,78.54
2022-07-25T00:44:30.260Z,77.18
2022-07-25T00:47:34.983Z,78.39
2022-07-25T00:50:39.757Z,78.80
2022-07-25T00:53:45.513Z,78.75
2022-07-25T00:56:51.263Z,79.35
2022-07-25T00:59:56.286Z,78.02
2022-07-25T01:03:00.475Z,78.00
2022-07-25T01:06:05.377Z,76.98
2022-07-25T01:09:10.750Z,77.66
2022-07-25T01:12:15.580Z,78.60
2022-07-25T01:15:21.691Z,79.87
2022-07-25T01:18:26.489Z,80.08
2022-07-25T01:21:31.483Z,81.03
2022-07-25T01:24:37.248Z,81.30
2022-07-25T01:27:43.293Z,82.08
2022-07-25T01:30:48.652Z,81.78
2022-07-25T01:33:53.491Z,83.27
2022-07-25T01:36:58.226Z,84.37
2022-07-25T01:40:03.735Z,84.88
2022-07-25T01:43:08.934Z,84.85
2022-07-25T01:46:13.972Z,84.69
2022-07-25T01:49:18.854Z,84.36
2022-07-25T01:52:23.556Z,83.82
2022-07-25T01:55:29.952Z,83.03
2022-07-25T01:58:36.668Z,82.01
2022-07-25T02:01:41.427Z,82.16
2022-07-25T02:04:45.844Z,82.02
2022-07-25T02:07:50.447Z,82.41
2022-07-25T02:10:55.462Z,83.07
2022-07-25T02:13:59.521Z,82.98
2022-07-25T02:17:04.664Z,83.13
2022-07-25T02:20:09.333Z,83.74
2022-07-25T02:23:13.844Z,83.62
2022-07-25T02:26:18.802Z,83.79
2022-07-25T02:29:23.267Z,82.76
2022-07-25T02:32:28.137Z,82.40
2022-07-25T02:35:32.901Z,81.92
2022-07-25T02:38:37.564Z,81.55
2022-07-25T02:41:42.561Z,80.94
2022-07-25T02:44:47.062Z,81.70
2022-07-25T02:47:52.067Z,81.39
2022-07-25T02:50:56.688Z,82.41
2022-07-25T02:54:01.330Z,83.19
2022-07-25T02:57:06.045Z,83.92
2022-07-25T03:00:11.315Z,84.03
2022-07-25T03:03:16.013Z,83.73
2022-07-25T03:06:20.516Z,83.95
2022-07-25T03:09:24.837Z,84.24
2022-07-25T03:12:29.741Z,83.84
2022-07-25T03:15:34.271Z,83.48
2022-07-25T03:18:39.058Z,82.56
2022-07-25T03:21:43.870Z,82.54
2022-07-25T03:24:48.619Z,83.79
2022-07-25T03:27:53.389Z,84.33
2022-07-25T03:30:58.233Z,84.15
2022-07-25T03:34:03.248Z,85.02
2022-07-25T03:37:08.960Z,86.87
2022-07-25T03:40:14.101Z,87.37
2022-07-25T03:43:20.412Z,88.84
2022-07-25T03:46:25.119Z,89.37
2022-07-25T03:49:29.621Z,90.14
2022-07-25T03:52:34.550Z,90.14
2022-07-25T03:55:40.653Z,89.64
2022-07-25T03:58:45.232Z,90.51
2022-07-25T04:01:51.280Z,92.23
2022-07-25T04:04:56.260Z,91.87
2022-07-25T04:08:01.292Z,91.60
2022-07-25T04:11:05.884Z,95.22
2022-07-25T04:14:10.943Z,91.83
2022-07-25T04:17:16.266Z,95.35
2022-07-25T04:20:21.192Z,92.44
2022-07-25T04:23:26.113Z,92.34
2022-07-25T04:26:30.743Z,92.63
2022-07-25T04:29:35.904Z,91.73
2022-07-25T04:32:40.119Z,94.28
2022-07-25T04:35:46.284Z,94.87
2022-07-25T04:38:50.810Z,91.66
2022-07-25T04:41:55.368Z,91.44
2022-07-25T04:45:00.019Z,91.73
2022-07-25T04:48:05.422Z,91.14
2022-07-25T04:51:11.446Z,91.31
2022-07-25T04:54:16.198Z,90.77
2022-07-25T04:57:21.233Z,91.20
2022-07-25T05:00:26.222Z,90.53
2022-07-25T05:03:30.943Z,91.21
2022-07-25T05:06:35.420Z,91.75
2022-07-25T05:09:40.861Z,91.29
2022-07-25T05:12:45.611Z,92.59
2022-07-25T05:15:50.128Z,90.58
2022-07-25T05:18:54.948Z,89.91
2022-07-25T05:21:59.714Z,87.42
2022-07-25T05:25:08.527Z,86.45
2022-07-25T05:28:15.817Z,86.17
2022-07-25T05:31:20.783Z,85.07
2022-07-25T05:34:25.035Z,85.17
2022-07-25T05:37:29.618Z,85.13
2022-07-25T05:40:34.343Z,84.35
2022-07-25T05:43:39.132Z,83.45
2022-07-25T05:46:44.211Z,83.13
2022-07-25T05:49:49.236Z,84.51
2022-07-25T05:52:53.420Z,83.34
2022-07-25T05:55:58.004Z,84.09
2022-07-25T05:59:02.807Z,84.45
2022-07-25T06:02:07.383Z,83.26
2022-07-25T06:05:12.045Z,82.93
2022-07-25T06:08:17.599Z,82.64
2022-07-25T06:11:22.078Z,81.81
2022-07-25T06:14:28.395Z,82.19
2022-07-25T06:17:33.124Z,82.67
2022-07-25T06:20:37.827Z,83.08
2022-07-25T06:23:42.252Z,82.37
2022-07-25T06:26:47.351Z,81.24
2022-07-25T06:29:51.889Z,80.47
2022-07-25T06:32:56.663Z,80.10
2022-07-25T06:36:02.085Z,80.28
2022-07-25T06:39:06.633Z,79.17
2022-07-25T06:42:11.332Z,79.96
2022-07-25T06:45:16.763Z,78.82
2022-07-25T06:48:21.683Z,80.19
2022-07-25T06:51:26.478Z,80.32
2022-07-25T06:54:31.194Z,80.35
2022-07-25T06:57:37.862Z,79.14
2022-07-25T07:00:42.438Z,77.98
2022-07-25T07:03:47.294Z,77.78
2022-07-25T07:06:51.881Z,77.98
2022-07-25T07:09:56.489Z,77.91
2022-07-25T07:13:11.671Z,76.74
2022-07-25T07:16:17.279Z,77.82
2022-07-25T07:19:22.182Z,76.97
2022-07-25T07:22:26.733Z,76.70
2022-07-25T07:25:31.733Z,76.34
2022-07-25T07:28:36.786Z,77.06
2022-07-25T07:31:41.815Z,76.66
2022-07-25T07:34:46.483Z,76.32
2022-07-25T07:37:51.038Z,75.78
2022-07-25T07:40:56.356Z,76.72
2022-07-25T07:44:00.967Z,77.28
2022-07-25T07:47:05.765Z,77.38
2022-07-25T07:50:22.601Z,77.23
2022-07-25T07:53:47.228Z,77.51
2022-07-25T07:56:51.944Z,77.81
2022-07-25T07:59:56.613Z,78.09
2022-07-25T08:03:01.372Z,78.01
2022-07-25T08:06:06.385Z,78.11
2022-07-25T08:09:11.252Z,77.72
2022-07-25T08:12:16.005Z,76.90
2022-07-25T08:15:22.593Z,76.40
2022-07-25T08:18:30.693Z,76.49
2022-07-25T08:21:35.468Z,76.13
2022-07-25T08:24:40.058Z,75.96
2022-07-25T08:27:48.572Z,76.72
2022-07-25T08:30:53.411Z,77.24
2022-07-25T08:33:58.523Z,77.21
2022-07-25T08:37:03.707Z,76.76
2022-07-25T08:40:08.836Z,76.51
2022-07-25T08:43:17.298Z,76.71
2022-07-25T08:46:22.966Z,77.14
2022-07-25T08:49:30.071Z,76.94
2022-07-25T08:52:36.679Z,76.82
2022-07-25T08:55:43.201Z,76.58
2022-07-25T08:58:48.221Z,76.41
2022-07-25T09:01:52.458Z,75.70
2022-07-25T09:04:58.633Z,77.56
2022-07-25T09:08:13.505Z,77.53
2022-07-25T09:11:34.430Z,77.34
2022-07-25T09:14:45.637Z,77.96
2022-07-25T09:17:54.612Z,78.87
2022-07-25T09:21:01.485Z,78.13
2022-07-25T09:24:17.334Z,78.09
2022-07-25T09:27:22.078Z,79.61
2022-07-25T09:30:26.722Z,79.57
2022-07-25T09:33:31.505Z,80.68
2022-07-25T09:36:36.418Z,81.06
2022-07-25T09:39:46.871Z,81.94
2022-07-25T09:42:53.369Z,82.48
2022-07-25T09:45:59.952Z,82.64
2022-07-25T09:49:04.860Z,82.72
2022-07-25T09:52:11.709Z,83.10
2022-07-25T09:55:17.333Z,83.30
2022-07-25T09:58:22.044Z,83.59
2022-07-25T10:01:39.125Z,84.30
2022-07-25T10:04:48.398Z,84.61
2022-07-25T10:07:55.724Z,85.18
2022-07-25T10:11:00.825Z,84.97
2022-07-25T10:14:13.169Z,84.14
2022-07-25T10:17:24.336Z,84.49
2022-07-25T10:20:30.685Z,84.67
2022-07-25T10:23:35.383Z,85.33
2022-07-25T10:26:52.307Z,84.95
2022-07-25T10:29:57.410Z,85.58
2022-07-25T10:33:06.619Z,85.99
2022-07-25T10:36:12.403Z,86.77
2022-07-25T10:39:20.331Z,87.72
2022-07-25T10:42:27.571Z,88.32
2022-07-25T10:46:00.683Z,88.99
2022-07-25T10:49:09.052Z,89.14
2022-07-25T10:52:19.492Z,89.25
2022-07-25T10:55:25.087Z,90.03
2022-07-25T10:58:30.162Z,90.06
2022-07-25T11:01:39.490Z,91.43
2022-07-25T11:04:59.392Z,92.12
2022-07-25T11:08:21.252Z,91.60
2022-07-25T11:11:41.316Z,91.09
2022-07-25T11:14:48.942Z,90.55
2022-07-25T11:17:54.926Z,90.88
2022-07-25T11:21:06.696Z,91.07
2022-07-25T11:24:11.747Z,91.25
2022-07-25T11:27:42.815Z,92.58
2022-07-25T11:30:47.693Z,91.81
2022-07-25T11:33:52.654Z,90.93
2022-07-25T11:36:58.818Z,92.03
2022-07-25T11:40:04.580Z,92.04
2022-07-25T11:43:09.302Z,91.88
2022-07-25T11:46:13.972Z,92.06
2022-07-25T11:49:19.040Z,92.12
2022-07-25T11:52:27.196Z,91.97
2022-07-25T11:55:37.348Z,92.17
2022-07-25T11:58:42.364Z,91.87
2022-07-25T12:01:48.366Z,91.89
2022-07-25T12:05:01.522Z,91.25
2022-07-25T12:08:19.004Z,91.27
2022-07-25T12:11:25.395Z,91.38
2022-07-25T12:14:35.153Z,91.61
2022-07-25T12:17:44.346Z,91.77
2022-07-25T12:20:49.550Z,91.66
2022-07-25T12:23:54.731Z,92.28
2022-07-25T12:26:59.378Z,92.91
2022-07-25T12:30:04.728Z,92.76
2022-07-25T12:33:09.963Z,92.85
2022-07-25T12:36:14.904Z,93.47
2022-07-25T12:39:19.553Z,93.66
2022-07-25T12:42:25.292Z,93.05
2022-07-25T12:45:30.068Z,92.73
2022-07-25T12:48:34.884Z,93.01
2022-07-25T12:51:39.670Z,93.67
2022-07-25T12:54:44.577Z,94.13
2022-07-25T12:57:49.858Z,94.06
2022-07-25T13:00:58.086Z,95.84
2022-07-25T13:04:08.135Z,94.60
2022-07-25T13:07:16.266Z,93.91
2022-07-25T13:10:21.489Z,93.93
2022-07-25T13:13:26.093Z,95.43
2022-07-25T13:16:30.721Z,94.09
2022-07-25T13:19:36.038Z,93.91
2022-07-25T13:22:40.774Z,94.29
2022-07-25T13:25:45.279Z,94.86
2022-07-25T13:28:50.060Z,94.71
2022-07-25T13:31:54.655Z,95.13
2022-07-25T13:34:59.388Z,95.18
2022-07-25T13:38:04.062Z,95.02
2022-07-25T13:41:09.397Z,95.01
2022-07-25T13:44:16.182Z,94.95
2022-07-25T13:47:21.064Z,94.57
2022-07-25T13:50:25.939Z,94.69
2022-07-25T13:53:30.830Z,95.00
2022-07-25T13:56:35.644Z,95.32
2022-07-25T13:59:40.263Z,95.38
2022-07-25T14:02:45.192Z,95.63
2022-07-25T14:05:50.064Z,95.43
2022-07-25T14:08:54.889Z,96.84
2022-07-25T14:11:59.616Z,95.66
2022-07-25T14:15:05.038Z,95.76
2022-07-25T14:18:10.607Z,95.40
2022-07-25T14:21:15.215Z,95.55
2022-07-25T14:24:19.664Z,95.83
2022-07-25T14:27:24.493Z,95.84
2022-07-25T14:30:29.178Z,96.18
2022-07-25T14:33:38.684Z,96.34
2022-07-25T14:36:45.692Z,96.69
2022-07-25T14:39:50.991Z,96.33
2022-07-25T14:42:55.736Z,96.26
2022-07-25T14:46:00.404Z,95.96
2022-07-25T14:49:05.302Z,95.60
2022-07-25T14:52:10.029Z,96.07
2022-07-25T14:55:14.988Z,95.86
2022-07-25T14:58:19.620Z,95.60
2022-07-25T15:01:26.563Z,95.66
2022-07-25T15:04:31.384Z,95.49
2022-07-25T15:07:36.114Z,95.74
2022-07-25T15:10:40.707Z,96.39
2022-07-25T15:13:45.727Z,98.07
2022-07-25T15:16:50.466Z,97.67
2022-07-25T15:19:55.476Z,98.05
2022-07-25T15:23:00.351Z,97.44
2022-07-25T15:26:06.467Z,97.66
2022-07-25T15:29:12.621Z,98.15
2022-07-25T15:32:18.811Z,98.45
2022-07-25T15:35:23.780Z,98.22
2022-07-25T15:38:29.841Z,97.50
2022-07-25T15:41:34.374Z,97.34
2022-07-25T15:44:38.799Z,96.78
2022-07-25T15:47:47.474Z,97.32
2022-07-25T15:50:56.881Z,96.95
2022-07-25T15:54:01.775Z,97.17
2022-07-25T15:57:07.936Z,96.79
2022-07-25T16:00:13.228Z,96.93
2022-07-25T16:03:17.533Z,98.79
2022-07-25T16:06:22.907Z,98.11
2022-07-25T16:09:27.625Z,97.99
2022-07-25T16:12:32.499Z,97.82
2022-07-25T16:15:37.294Z,98.37
2022-07-25T16:18:42.090Z,98.20
2022-07-25T16:21:47.087Z,98.51
2022-07-25T16:24:51.952Z,98.57
2022-07-25T16:27:57.014Z,98.26
2022-07-25T16:31:01.586Z,98.43
2022-07-25T16:34:06.256Z,97.83
2022-07-25T16:37:10.936Z,97.75
2022-07-25T16:40:15.816Z,97.27
2022-07-25T16:43:20.487Z,97.84
2022-07-25T16:46:28.517Z,98.10
2022-07-25T16:49:33.441Z,98.75
2022-07-25T16:52:38.185Z,98.18
2022-07-25T16:55:42.976Z,98.29
2022-07-25T16:58:47.856Z,97.69
2022-07-25T17:01:52.518Z,97.26
2022-07-25T17:04:57.339Z,96.88
2022-07-25T17:08:01.995Z,97.39
2022-07-25T17:11:06.993Z,98.08
2022-07-25T17:14:11.497Z,98.34
2022-07-25T17:17:16.205Z,97.65
2022-07-25T17:20:20.963Z,97.88
2022-07-25T17:23:25.946Z,97.49
2022-07-25T17:26:30.880Z,96.99
2022-07-25T17:29:35.690Z,96.97
2022-07-25T17:32:40.839Z,96.82
2022-07-25T17:35:45.593Z,96.82
2022-07-25T17:38:50.230Z,97.02
2022-07-25T17:41:54.911Z,96.80
2022-07-25T17:44:59.624Z,96.98
2022-07-25T17:48:04.891Z,97.25
2022-07-25T17:51:09.625Z,97.04
2022-07-25T17:54:14.441Z,97.47
2022-07-25T17:57:20.323Z,97.70
2022-07-25T18:00:25.328Z,97.98
2022-07-25T18:03:30.160Z,97.97
2022-07-25T18:06:35.176Z,97.91
2022-07-25T18:09:39.674Z,98.39
2022-07-25T18:12:44.320Z,98.30
2022-07-25T18:15:49.098Z,98.16
2022-07-25T18:18:53.773Z,98.49
2022-07-25T18:21:58.528Z,98.79
2022-07-25T18:25:03.654Z,99.00
2022-07-25T18:28:08.550Z,99.01
2022-07-25T18:31:13.241Z,99.11
2022-07-25T18:34:18.682Z,98.68
2022-07-25T18:37:23.402Z,98.91
2022-07-25T18:40:28.737Z,98.76
2022-07-25T18:43:33.080Z,100.00
2022-07-25T18:46:39.195Z,99.83
2022-07-25T18:49:45.800Z,99.44
2022-07-25T18:52:50.430Z,99.09
2022-07-25T18:55:55.000Z,99.08
2022-07-25T18:58:59.903Z,99.35
2022-07-25T19:02:06.238Z,99.12
2022-07-25T19:05:11.297Z,99.04
2022-07-25T19:08:15.945Z,99.20
2022-07-25T19:11:20.802Z,99.28
2022-07-25T19:14:27.005Z,99.45
2022-07-25T19:17:33.077Z,99.62
2022-07-25T19:20:37.683Z,99.51
2022-07-25T19:23:45.718Z,99.77
2022-07-25T19:26:54.372Z,99.93
2022-07-25T19:29:59.107Z,99.98
2022-07-25T19:33:03.636Z,99.62
2022-07-25T19:36:08.738Z,99.32
2022-07-25T19:39:13.920Z,99.22
2022-07-25T19:42:18.349Z,100.00
2022-07-25T19:45:22.937Z,99.76
2022-07-25T19:48:27.521Z,99.99
2022-07-25T19:51:33.772Z,99.80
2022-07-25T19:54:39.798Z,99.64
2022-07-25T19:57:45.024Z,99.71
2022-07-25T20:00:49.781Z,99.93
2022-07-25T20:03:54.402Z,99.69
2022-07-25T20:07:01.911Z,99.34
2022-07-25T20:10:07.893Z,99.73
2022-07-25T20:13:12.431Z,99.74
2022-07-25T20:16:17.293Z,99.53
2022-07-25T20:19:21.908Z,99.61
2022-07-25T20:22:26.790Z,99.96
2022-07-25T20:25:31.511Z,100.00
2022-07-25T20:28:36.347Z,100.00
2022-07-25T20:31:42.322Z,100.00
2022-07-25T20:34:46.873Z,100.00
2022-07-25T20:37:51.570Z,100.00
2022-07-25T20:40:57.224Z,100.00
2022-07-25T20:44:01.692Z,100.00
2022-07-25T20:47:06.381Z,100.00
2022-07-25T20:50:11.565Z,99.79
2022-07-25T20:53:16.348Z,99.83
2022-07-25T20:56:21.178Z,99.76
2022-07-25T20:59:26.074Z,99.99
2022-07-25T21:02:30.687Z,100.00
2022-07-25T21:05:35.332Z,100.00
2022-07-25T21:08:40.247Z,100.00
2022-07-25T21:11:44.920Z,100.00
2022-07-25T21:14:49.414Z,99.95
2022-07-25T21:17:54.369Z,100.00
2022-07-25T21:20:59.409Z,100.00
2022-07-25T21:24:03.978Z,100.00
2022-07-25T21:27:08.390Z,99.85
2022-07-25T21:30:15.077Z,100.00
2022-07-25T21:33:19.914Z,100.00
2022-07-25T21:36:24.605Z,99.83
2022-07-25T21:39:29.212Z,100.00
2022-07-25T21:42:34.009Z,99.34
2022-07-25T21:45:38.804Z,98.87
2022-07-25T21:49:01.776Z,98.36
2022-07-25T21:52:07.337Z,97.77
2022-07-25T21:55:12.009Z,97.22
2022-07-25T21:58:16.575Z,97.27
2022-07-25T22:01:22.146Z,97.10
2022-07-25T22:04:26.696Z,97.25
2022-07-25T22:07:31.455Z,97.45
2022-07-25T22:10:36.178Z,97.10
2022-07-25T22:13:43.130Z,97.23
2022-07-25T22:16:47.976Z,96.82
2022-07-25T22:19:52.948Z,97.25
2022-07-25T22:22:57.487Z,97.20
2022-07-25T22:26:01.986Z,97.27
2022-07-25T22:29:06.862Z,96.79
2022-07-25T22:32:11.621Z,97.00
2022-07-25T22:35:16.754Z,96.67
2022-07-25T22:38:21.379Z,97.21
2022-07-25T22:41:25.951Z,96.57
2022-07-25T22:44:30.710Z,95.48
2022-07-25T22:47:35.217Z,94.83
2022-07-25T22:50:39.938Z,94.31
2022-07-25T22:53:44.404Z,93.67
2022-07-25T22:56:49.043Z,92.77
2022-07-25T22:59:53.443Z,93.30
2022-07-25T23:02:58.451Z,91.37
2022-07-25T23:06:03.125Z,93.76
2022-07-25T23:09:08.154Z,89.66
2022-07-25T23:12:13.026Z,90.19
2022-07-25T23:15:17.705Z,90.29
2022-07-25T23:18:22.514Z,88.11
2022-07-25T23:21:27.264Z,84.69
2022-07-25T23:24:34.483Z,83.54
2022-07-25T23:27:42.224Z,83.43
2022-07-25T23:30:47.107Z,78.68
2022-07-25T23:33:51.466Z,76.33
2022-07-25T23:36:56.224Z,74.67
2022-07-25T23:40:00.869Z,75.50
2022-07-25T23:43:06.712Z,76.32
2022-07-25T23:46:11.734Z,75.21
2022-07-25T23:49:16.013Z,70.95
2022-07-25T23:52:20.659Z,65.94
2022-07-25T23:55:25.301Z,63.74
2022-07-25T23:58:29.937Z,62.13
